SHASTA DAM (USBR) (SHA)

Elevation: 1067' · SACRAMENTO R basin · Operator: US Bureau of Reclamation

Provisional data, subject to change.
Query executed Sunday at 2:22:39   clock

Select a sensor type for a plot of data.
Note: Reservoir Flows are daily averages.

Earlier

Date RES ELE    STORAGE    RES CHG    TOC STO    ABV TOC    OUTFLOW    INFLOW    EVAP    FNF    RIV REL    PPT INC    RAIN    SPILL    DIS PWR   
 FEET   AF   AF   AF   AF   CFS   CFS   CFS   CFS   CFS   INCHES   INCHES   CFS   CFS  
06/06/2015 977.40 2365605 -5972 4552100 -2186495 6290 3466 187 2886 0 0.00 49.43 0 6290
06/07/2015 977.08 2359441 -6164 4552100 -2192659 6374 3520 254 2788 0 0.00 49.43 0 6374
06/08/2015 976.79 2353878 -5563 4552100 -2198222 6706 4087 186 2841 0 0.00 49.43 0 6706
06/09/2015 976.43 2346983 -6895 4552100 -- 5741 2451 186 2966 0 0.00 49.43 0 5741
06/10/2015 976.03 2339322 -7661 4552100 -2212778 5781 2116 197 3394 0 0.00 49.43 0 5781
06/11/2015 975.66 2332271 -7051 4552100 -2219829 6038 2690 207 2803 0 0.00 49.43 0 6038
06/12/2015 975.30 2325414 -6857 4552100 -2226686 5643 2432 246 2686 0 0.00 49.43 0 5643
06/13/2015 974.92 2318185 -7229 4552100 -2233915 6249 2816 212 2710 0 0.00 49.43 0 6249
06/14/2015 974.57 2311558 -6627 4552100 -2240542 5931 2835 245 2744 0 0.00 49.43 0 5931
06/15/2015 974.14 2303416 -8142 4552100 -2248684 6835 2952 222 2692 0 0.00 49.43 0 6835
06/16/2015 973.67 2294551 -8865 4552100 -2257549 6377 2146 238 2476 0 0.00 49.43 0 6377
06/17/2015 973.32 2287961 -6590 4552100 -2264139 5939 2849 232 2627 e 0 0.00 49.43 0 5939
06/18/2015 972.97 2281374 -6587 4552100 -2270726 5964 2886 243 2626 e 0 0.00 49.43 0 5964
06/19/2015 972.53 2273137 -8237 4552100 -2278963 6177 2266 242 2484 0 0.00 49.43 0 6177
06/20/2015 972.16 2266210 -6927 4552100 -2285890 5649 2399 242 2525 0 0.00 49.43 0 5649
06/21/2015 971.78 2259119 -7091 4552100 -2292981 5758 2347 164 2418 0 0.00 49.43 0 5758
06/22/2015 971.34 2250929 -8190 4552100 -2301171 6350 2456 235 2297 0 0.00 49.43 0 6350
06/23/2015 970.99 2244415 -6514 4552100 -2307685 5579 2513 218 2424 e 0 0.00 49.43 0 5579
06/24/2015 970.62 2237567 -6848 4552100 -2314533 5882 2621 191 2810 0 0.00 49.43 0 5882
06/25/2015 970.35 2232570 -4997 4552100 -2319530 5643 3347 223 2030 0 0.00 49.43 0 5643
06/26/2015 970.07 2227388 -5182 4552100 -2324712 5786 3417 244 2520 0 0.00 49.43 0 5786
06/27/2015 969.64 2219469 -7919 4552100 -- 5647 1899 244 2664 0 0.00 49.43 0 5647
06/28/2015 969.16 2210636 -8833 4552100 -- 5992 1750 211 2458 0 0.00 49.43 0 5992
06/29/2015 968.72 2202570 -8066 4552100 -2349530 5779 1922 210 2553 0 0.00 49.43 0 5779
06/30/2015 968.48 2198180 -4390 4552100 -2353920 5047 3049 215 2312 0 0.00 49.43 0 5047
07/01/2015 968.24 2193789 -4391 4552100 -2358311 5034 2981 161 2512 0 0.00 49.43 0 5034
07/02/2015 967.92 2187944 -5845 4552100 -2364156 5391 2600 156 2201 0 0.00 49.43 0 5391
07/03/2015 967.50 2180305 -7639 4552100 -2371795 5725 2115 241 2497 0 0.00 49.43 0 5725
07/04/2015 -- -- -- -- -- -- -- -- -- -- -- -- -- --
07/05/2015 -- -- -- -- -- -- -- -- -- -- -- -- -- --

Later | Latest

Warning! This data is preliminary and subject to revision.

Show SHA Map | Plot SHA Data | 1 Month SHA Data | Real-Time SHA Data | SHA Info